sensor_id;sensor_type;location;lat;lon;timestamp;pressure;altitude;pressure_sealevel;temperature;humidity
81397;BME280;70852;49.908;8.126;2023-11-19T00:01:50;100052.41;;;8.09;95.05
81397;BME280;70852;49.908;8.126;2023-11-19T00:04:16;100044.88;;;8.15;94.76
81397;BME280;70852;49.908;8.126;2023-11-19T00:06:44;100061.69;;;8.14;95.38
81397;BME280;70852;49.908;8.126;2023-11-19T00:09:09;100071.22;;;8.16;94.92
81397;BME280;70852;49.908;8.126;2023-11-19T00:11:37;100072.56;;;8.19;94.98
81397;BME280;70852;49.908;8.126;2023-11-19T00:14:02;100084.69;;;8.18;95.01
81397;BME280;70852;49.908;8.126;2023-11-19T00:16:28;100084.06;;;8.21;95.68
81397;BME280;70852;49.908;8.126;2023-11-19T00:18:54;100077.31;;;8.27;94.81
81397;BME280;70852;49.908;8.126;2023-11-19T00:21:19;100068.91;;;8.23;94.91
81397;BME280;70852;49.908;8.126;2023-11-19T00:23:46;100068.91;;;8.23;95.27
81397;BME280;70852;49.908;8.126;2023-11-19T00:26:16;100076.53;;;8.26;95.32
81397;BME280;70852;49.908;8.126;2023-11-19T00:28:44;100074.91;;;8.25;95.02
81397;BME280;70852;49.908;8.126;2023-11-19T00:31:09;100077.31;;;8.27;95.09
81397;BME280;70852;49.908;8.126;2023-11-19T00:33:39;100063.56;;;8.27;95.49
81397;BME280;70852;49.908;8.126;2023-11-19T00:36:07;100048.22;;;8.26;95.07
81397;BME280;70852;49.908;8.126;2023-11-19T00:38:33;100052.56;;;8.27;95.38
81397;BME280;70852;49.908;8.126;2023-11-19T00:40:58;100056.94;;;8.28;95.23
81397;BME280;70852;49.908;8.126;2023-11-19T00:43:23;100054.94;;;8.33;95.41
81397;BME280;70852;49.908;8.126;2023-11-19T00:45:51;100056.94;;;8.41;94.65
81397;BME280;70852;49.908;8.126;2023-11-19T00:48:19;100058.19;;;8.35;94.60
81397;BME280;70852;49.908;8.126;2023-11-19T00:50:46;100056.84;;;8.47;94.32
81397;BME280;70852;49.908;8.126;2023-11-19T00:53:14;100034.13;;;8.41;95.27
81397;BME280;70852;49.908;8.126;2023-11-19T00:55:39;100050.56;;;8.32;95.47
81397;BME280;70852;49.908;8.126;2023-11-19T00:58:05;100027.19;;;8.30;95.88
81397;BME280;70852;49.908;8.126;2023-11-19T01:00:30;100019.16;;;8.33;95.67
81397;BME280;70852;49.908;8.126;2023-11-19T01:02:59;99996.84;;;8.35;96.25
81397;BME280;70852;49.908;8.126;2023-11-19T01:05:25;100037.31;;;8.34;96.05
81397;BME280;70852;49.908;8.126;2023-11-19T01:07:50;100019.47;;;8.32;96.48
81397;BME280;70852;49.908;8.126;2023-11-19T01:10:18;100015.59;;;8.33;96.13
81397;BME280;70852;49.908;8.126;2023-11-19T01:12:46;100012.59;;;8.43;95.69
81397;BME280;70852;49.908;8.126;2023-11-19T01:15:14;100022.09;;;8.37;96.41
81397;BME280;70852;49.908;8.126;2023-11-19T01:17:39;100024.38;;;8.35;97.06
81397;BME280;70852;49.908;8.126;2023-11-19T01:20:06;99999.97;;;8.28;97.14
81397;BME280;70852;49.908;8.126;2023-11-19T01:22:32;100008.47;;;8.32;96.57
81397;BME280;70852;49.908;8.126;2023-11-19T01:25:00;100007.22;;;8.38;96.83
81397;BME280;70852;49.908;8.126;2023-11-19T01:27:30;100012.91;;;8.41;96.36
81397;BME280;70852;49.908;8.126;2023-11-19T01:29:57;100002.81;;;8.37;96.44
81397;BME280;70852;49.908;8.126;2023-11-19T01:32:23;99998.47;;;8.36;97.20
81397;BME280;70852;49.908;8.126;2023-11-19T01:34:51;100026.97;;;8.40;96.69
81397;BME280;70852;49.908;8.126;2023-11-19T01:37:16;100024.94;;;8.46;96.17
81397;BME280;70852;49.908;8.126;2023-11-19T01:39:44;100033.88;;;8.51;96.36
81397;BME280;70852;49.908;8.126;2023-11-19T01:42:10;100013.13;;;8.45;96.46
81397;BME280;70852;49.908;8.126;2023-11-19T01:44:37;100005.97;;;8.44;97.31
81397;BME280;70852;49.908;8.126;2023-11-19T01:47:02;99993.44;;;8.38;97.57
81397;BME280;70852;49.908;8.126;2023-11-19T01:49:30;99973.22;;;8.34;97.42
81397;BME280;70852;49.908;8.126;2023-11-19T01:51:57;99974.84;;;8.35;97.58
81397;BME280;70852;49.908;8.126;2023-11-19T01:54:25;99965.47;;;8.36;97.74
81397;BME280;70852;49.908;8.126;2023-11-19T01:56:54;99966.13;;;8.41;97.26
81397;BME280;70852;49.908;8.126;2023-11-19T01:59:24;99951.44;;;8.46;96.01
81397;BME280;70852;49.908;8.126;2023-11-19T02:01:57;99945.31;;;8.49;96.38
81397;BME280;70852;49.908;8.126;2023-11-19T02:04:23;99942.06;;;8.47;96.21
81397;BME280;70852;49.908;8.126;2023-11-19T02:06:54;99940.75;;;8.44;96.74
81397;BME280;70852;49.908;8.126;2023-11-19T02:09:21;99946.06;;;8.41;97.09
81397;BME280;70852;49.908;8.126;2023-11-19T02:11:48;99945.25;;;8.40;97.43
81397;BME280;70852;49.908;8.126;2023-11-19T02:14:17;99939.63;;;8.46;97.29
81397;BME280;70852;49.908;8.126;2023-11-19T02:16:43;99944.63;;;8.43;97.43
81397;BME280;70852;49.908;8.126;2023-11-19T02:19:08;99952.38;;;8.41;97.73
81397;BME280;70852;49.908;8.126;2023-11-19T02:21:36;99954.81;;;8.43;97.95
81397;BME280;70852;49.908;8.126;2023-11-19T02:24:08;99953.09;;;8.47;98.05
81397;BME280;70852;49.908;8.126;2023-11-19T02:26:50;99944.06;;;8.55;97.46
81397;BME280;70852;49.908;8.126;2023-11-19T02:29:17;99939.53;;;8.59;96.82
81397;BME280;70852;49.908;8.126;2023-11-19T02:31:42;99936.91;;;8.76;95.92
81397;BME280;70852;49.908;8.126;2023-11-19T02:34:10;99922.63;;;8.74;95.96
81397;BME280;70852;49.908;8.126;2023-11-19T02:36:37;99929.63;;;8.80;95.91
81397;BME280;70852;49.908;8.126;2023-11-19T02:39:06;99922.34;;;8.85;95.52
81397;BME280;70852;49.908;8.126;2023-11-19T02:41:37;99925.88;;;8.76;96.41
81397;BME280;70852;49.908;8.126;2023-11-19T02:44:05;99905.31;;;8.74;96.54
81397;BME280;70852;49.908;8.126;2023-11-19T02:46:35;99911.13;;;8.72;97.15
81397;BME280;70852;49.908;8.126;2023-11-19T02:49:01;99908.88;;;8.74;96.72
81397;BME280;70852;49.908;8.126;2023-11-19T02:51:34;99919.41;;;8.81;96.23
81397;BME280;70852;49.908;8.126;2023-11-19T02:54:02;99912.78;;;8.82;96.62
81397;BME280;70852;49.908;8.126;2023-11-19T02:56:29;99912.94;;;8.77;97.02
81397;BME280;70852;49.908;8.126;2023-11-19T02:59:02;99915.69;;;8.77;97.41
81397;BME280;70852;49.908;8.126;2023-11-19T03:01:41;99907.94;;;8.79;96.89
81397;BME280;70852;49.908;8.126;2023-11-19T03:04:11;99909.53;;;8.80;97.34
81397;BME280;70852;49.908;8.126;2023-11-19T03:06:37;99907.78;;;8.84;96.85
81397;BME280;70852;49.908;8.126;2023-11-19T03:09:05;99900.69;;;8.92;96.75
81397;BME280;70852;49.908;8.126;2023-11-19T03:11:35;99907.66;;;8.89;96.83
81397;BME280;70852;49.908;8.126;2023-11-19T03:14:03;99897.44;;;8.90;97.66
81397;BME280;70852;49.908;8.126;2023-11-19T03:16:31;99888.53;;;8.93;96.96
81397;BME280;70852;49.908;8.126;2023-11-19T03:18:58;99882.25;;;9.01;96.88
81397;BME280;70852;49.908;8.126;2023-11-19T03:21:29;99882.25;;;9.01;97.28
81397;BME280;70852;49.908;8.126;2023-11-19T03:23:54;99885.97;;;8.96;97.45
81397;BME280;70852;49.908;8.126;2023-11-19T03:26:22;99883.22;;;8.96;98.01
81397;BME280;70852;49.908;8.126;2023-11-19T03:28:50;99882.91;;;8.98;98.02
81397;BME280;70852;49.908;8.126;2023-11-19T03:31:15;99879.16;;;8.94;98.75
81397;BME280;70852;49.908;8.126;2023-11-19T03:33:40;99879.97;;;8.94;98.68
81397;BME280;70852;49.908;8.126;2023-11-19T03:36:08;99877.88;;;9.00;98.77
81397;BME280;70852;49.908;8.126;2023-11-19T03:38:36;99875.59;;;9.02;98.95
81397;BME280;70852;49.908;8.126;2023-11-19T03:41:12;99871.06;;;8.97;98.79
81397;BME280;70852;49.908;8.126;2023-11-19T03:43:37;99876.06;;;8.95;99.26
81397;BME280;70852;49.908;8.126;2023-11-19T03:46:03;99882.25;;;9.01;98.79
81397;BME280;70852;49.908;8.126;2023-11-19T03:48:32;99873.56;;;9.16;98.06
81397;BME280;70852;49.908;8.126;2023-11-19T03:51:00;99869.66;;;9.17;98.07
81397;BME280;70852;49.908;8.126;2023-11-19T03:53:25;99865.44;;;9.11;98.26
81397;BME280;70852;49.908;8.126;2023-11-19T03:55:53;99879.84;;;9.08;98.52
81397;BME280;70852;49.908;8.126;2023-11-19T03:58:21;99886.19;;;9.17;98.56
81397;BME280;70852;49.908;8.126;2023-11-19T04:00:46;99885.06;;;9.18;98.31
81397;BME280;70852;49.908;8.126;2023-11-19T04:03:11;99883.75;;;9.15;98.58
81397;BME280;70852;49.908;8.126;2023-11-19T04:05:37;99877.94;;;9.17;98.69
81397;BME280;70852;49.908;8.126;2023-11-19T04:08:05;99864.66;;;9.19;98.44
81397;BME280;70852;49.908;8.126;2023-11-19T04:10:31;99852.00;;;9.18;99.14
81397;BME280;70852;49.908;8.126;2023-11-19T04:12:56;99860.59;;;9.25;99.06
81397;BME280;70852;49.908;8.126;2023-11-19T04:15:23;99859.78;;;9.25;98.75
81397;BME280;70852;49.908;8.126;2023-11-19T04:17:49;99867.13;;;9.29;99.23
81397;BME280;70852;49.908;8.126;2023-11-19T04:20:18;99866.13;;;9.25;99.57
81397;BME280;70852;49.908;8.126;2023-11-19T04:22:43;99868.75;;;9.30;99.54
81397;BME280;70852;49.908;8.126;2023-11-19T04:25:08;99866.31;;;9.29;99.56
81397;BME280;70852;49.908;8.126;2023-11-19T04:27:36;99867.44;;;9.36;99.48
81397;BME280;70852;49.908;8.126;2023-11-19T04:30:04;99873.44;;;9.38;99.33
81397;BME280;70852;49.908;8.126;2023-11-19T04:32:30;99870.69;;;9.38;99.22
81397;BME280;70852;49.908;8.126;2023-11-19T04:34:58;99851.41;;;9.38;99.21
81397;BME280;70852;49.908;8.126;2023-11-19T04:37:25;99856.59;;;9.40;99.04
81397;BME280;70852;49.908;8.126;2023-11-19T04:39:51;99865.50;;;9.37;99.53
81397;BME280;70852;49.908;8.126;2023-11-19T04:42:18;99855.28;;;9.46;99.15
81397;BME280;70852;49.908;8.126;2023-11-19T04:44:47;99845.56;;;9.48;99.12
81397;BME280;70852;49.908;8.126;2023-11-19T04:47:14;99863.56;;;9.46;99.06
81397;BME280;70852;49.908;8.126;2023-11-19T04:49:42;99868.59;;;9.44;98.61
81397;BME280;70852;49.908;8.126;2023-11-19T04:52:10;99860.16;;;9.40;98.63
81397;BME280;70852;49.908;8.126;2023-11-19T04:54:46;99855.47;;;9.32;99.02
81397;BME280;70852;49.908;8.126;2023-11-19T04:57:11;99843.44;;;9.37;99.20
81397;BME280;70852;49.908;8.126;2023-11-19T04:59:37;99849.28;;;9.35;99.25
81397;BME280;70852;49.908;8.126;2023-11-19T05:02:07;99854.16;;;9.38;99.31
81397;BME280;70852;49.908;8.126;2023-11-19T05:04:33;99847.03;;;9.37;99.45
81397;BME280;70852;49.908;8.126;2023-11-19T05:07:03;99848.66;;;9.38;99.63
81397;BME280;70852;49.908;8.126;2023-11-19T05:09:28;99856.28;;;9.50;99.39
81397;BME280;70852;49.908;8.126;2023-11-19T05:11:53;99854.34;;;9.59;99.47
81397;BME280;70852;49.908;8.126;2023-11-19T05:14:19;99845.75;;;9.61;99.54
81397;BME280;70852;49.908;8.126;2023-11-19T05:16:45;99843.63;;;9.66;99.77
81397;BME280;70852;49.908;8.126;2023-11-19T05:19:13;99841.53;;;9.72;99.76
81397;BME280;70852;49.908;8.126;2023-11-19T05:21:42;99842.03;;;9.74;99.81
81397;BME280;70852;49.908;8.126;2023-11-19T05:24:10;99841.53;;;9.72;100.00
81397;BME280;70852;49.908;8.126;2023-11-19T05:26:36;99841.06;;;9.78;100.00
81397;BME280;70852;49.908;8.126;2023-11-19T05:29:02;99845.59;;;9.83;99.93
81397;BME280;70852;49.908;8.126;2023-11-19T05:31:32;99848.84;;;9.85;99.98
81397;BME280;70852;49.908;8.126;2023-11-19T05:34:00;99842.03;;;9.82;99.93
81397;BME280;70852;49.908;8.126;2023-11-19T05:36:27;99836.03;;;9.80;100.00
81397;BME280;70852;49.908;8.126;2023-11-19T05:38:56;99841.38;;;9.77;100.00
81397;BME280;70852;49.908;8.126;2023-11-19T05:41:24;99837.34;;;9.83;100.00
81397;BME280;70852;49.908;8.126;2023-11-19T05:43:51;99835.06;;;9.85;100.00
81397;BME280;70852;49.908;8.126;2023-11-19T05:46:16;99832.94;;;9.90;100.00
81397;BME280;70852;49.908;8.126;2023-11-19T05:48:42;99841.03;;;9.87;100.00
81397;BME280;70852;49.908;8.126;2023-11-19T05:51:11;99845.09;;;9.81;100.00
81397;BME280;70852;49.908;8.126;2023-11-19T05:53:37;99848.19;;;9.79;100.00
81397;BME280;70852;49.908;8.126;2023-11-19T05:56:02;99855.97;;;9.86;100.00
81397;BME280;70852;49.908;8.126;2023-11-19T05:58:29;99851.25;;;9.86;100.00
81397;BME280;70852;49.908;8.126;2023-11-19T06:00:55;99862.78;;;9.80;100.00
81397;BME280;70852;49.908;8.126;2023-11-19T06:03:21;99851.94;;;9.83;100.00
81397;BME280;70852;49.908;8.126;2023-11-19T06:05:47;99861.34;;;9.91;100.00
81397;BME280;70852;49.908;8.126;2023-11-19T06:08:12;99857.13;;;9.85;100.00
81397;BME280;70852;49.908;8.126;2023-11-19T06:10:42;99861.84;;;9.84;100.00
81397;BME280;70852;49.908;8.126;2023-11-19T06:13:11;99868.78;;;9.90;100.00
81397;BME280;70852;49.908;8.126;2023-11-19T06:15:36;99864.09;;;9.91;100.00
81397;BME280;70852;49.908;8.126;2023-11-19T06:18:04;99863.13;;;9.96;100.00
81397;BME280;70852;49.908;8.126;2023-11-19T06:20:30;99873.16;;;10.00;100.00
81397;BME280;70852;49.908;8.126;2023-11-19T06:22:59;99868.63;;;10.04;100.00
81397;BME280;70852;49.908;8.126;2023-11-19T06:25:25;99871.06;;;9.97;100.00
81397;BME280;70852;49.908;8.126;2023-11-19T06:27:53;99872.69;;;9.98;100.00
81397;BME280;70852;49.908;8.126;2023-11-19T06:30:20;99888.41;;;9.98;100.00
81397;BME280;70852;49.908;8.126;2023-11-19T06:32:48;99885.03;;;10.01;100.00
81397;BME280;70852;49.908;8.126;2023-11-19T06:35:13;99882.91;;;9.98;100.00
81397;BME280;70852;49.908;8.126;2023-11-19T06:37:39;99881.78;;;9.90;100.00
81397;BME280;70852;49.908;8.126;2023-11-19T06:40:08;99884.72;;;9.85;100.00
81397;BME280;70852;49.908;8.126;2023-11-19T06:42:36;99885.16;;;9.87;100.00
81397;BME280;70852;49.908;8.126;2023-11-19T06:45:02;99886.66;;;9.84;100.00
81397;BME280;70852;49.908;8.126;2023-11-19T06:47:28;99879.16;;;9.76;100.00
81397;BME280;70852;49.908;8.126;2023-11-19T06:49:54;99866.38;;;9.72;100.00
81397;BME280;70852;49.908;8.126;2023-11-19T06:52:24;99865.69;;;9.75;100.00
81397;BME280;70852;49.908;8.126;2023-11-19T06:54:50;99864.75;;;9.79;100.00
81397;BME280;70852;49.908;8.126;2023-11-19T06:57:15;99866.84;;;9.82;100.00
81397;BME280;70852;49.908;8.126;2023-11-19T06:59:48;99866.69;;;9.79;100.00
81397;BME280;70852;49.908;8.126;2023-11-19T07:02:13;99867.34;;;9.84;100.00
81397;BME280;70852;49.908;8.126;2023-11-19T07:04:40;99866.03;;;9.90;100.00
81397;BME280;70852;49.908;8.126;2023-11-19T07:07:07;99866.66;;;9.96;100.00
81397;BME280;70852;49.908;8.126;2023-11-19T07:09:33;99864.59;;;9.93;100.00
81397;BME280;70852;49.908;8.126;2023-11-19T07:12:01;99872.53;;;9.95;100.00
81397;BME280;70852;49.908;8.126;2023-11-19T07:14:29;99872.03;;;9.93;100.00
81397;BME280;70852;49.908;8.126;2023-11-19T07:16:57;99867.03;;;9.95;100.00
81397;BME280;70852;49.908;8.126;2023-11-19T07:19:22;99878.50;;;9.97;99.96
81397;BME280;70852;49.908;8.126;2023-11-19T07:21:48;99882.09;;;9.97;100.00
81397;BME280;70852;49.908;8.126;2023-11-19T07:24:16;99880.94;;;10.07;100.00
81397;BME280;70852;49.908;8.126;2023-11-19T07:26:46;99876.59;;;10.14;99.92
81397;BME280;70852;49.908;8.126;2023-11-19T07:29:12;99875.75;;;10.14;100.00
81397;BME280;70852;49.908;8.126;2023-11-19T07:31:38;99871.69;;;10.11;100.00
81397;BME280;70852;49.908;8.126;2023-11-19T07:34:03;99876.59;;;10.14;99.83
81397;BME280;70852;49.908;8.126;2023-11-19T07:36:30;99875.91;;;10.17;100.00
81397;BME280;70852;49.908;8.126;2023-11-19T07:39:00;99883.09;;;10.27;100.00
81397;BME280;70852;49.908;8.126;2023-11-19T07:41:25;99885.34;;;10.34;100.00
81397;BME280;70852;49.908;8.126;2023-11-19T07:43:55;99894.75;;;10.41;99.92
81397;BME280;70852;49.908;8.126;2023-11-19T07:46:21;99895.22;;;10.52;99.64
81397;BME280;70852;49.908;8.126;2023-11-19T07:48:46;99890.97;;;10.63;99.53
81397;BME280;70852;49.908;8.126;2023-11-19T07:51:14;99891.41;;;10.74;98.66
81397;BME280;70852;49.908;8.126;2023-11-19T07:53:41;99898.16;;;10.93;97.37
81397;BME280;70852;49.908;8.126;2023-11-19T07:56:08;99891.81;;;11.02;96.83
81397;BME280;70852;49.908;8.126;2023-11-19T07:58:34;99898.78;;;11.08;96.15
81397;BME280;70852;49.908;8.126;2023-11-19T08:01:00;99905.91;;;11.09;95.84
81397;BME280;70852;49.908;8.126;2023-11-19T08:03:29;99900.88;;;11.11;95.25
81397;BME280;70852;49.908;8.126;2023-11-19T08:05:59;99895.91;;;11.25;93.87
81397;BME280;70852;49.908;8.126;2023-11-19T08:08:27;99899.25;;;11.39;93.34
81397;BME280;70852;49.908;8.126;2023-11-19T08:10:54;99904.84;;;11.60;91.46
81397;BME280;70852;49.908;8.126;2023-11-19T08:13:25;99915.56;;;11.61;91.53
81397;BME280;70852;49.908;8.126;2023-11-19T08:15:51;99916.16;;;11.67;91.16
81397;BME280;70852;49.908;8.126;2023-11-19T08:18:16;99915.13;;;11.80;89.61
81397;BME280;70852;49.908;8.126;2023-11-19T08:20:45;99926.75;;;12.15;88.54
81397;BME280;70852;49.908;8.126;2023-11-19T08:23:12;99917.28;;;12.37;87.30
81397;BME280;70852;49.908;8.126;2023-11-19T08:25:40;99929.25;;;12.29;87.88
81397;BME280;70852;49.908;8.126;2023-11-19T08:28:07;99938.31;;;12.17;88.07
81397;BME280;70852;49.908;8.126;2023-11-19T08:30:35;99934.53;;;12.01;88.27
81397;BME280;70852;49.908;8.126;2023-11-19T08:33:01;99942.88;;;11.92;89.91
81397;BME280;70852;49.908;8.126;2023-11-19T08:35:28;99943.44;;;11.86;89.45
81397;BME280;70852;49.908;8.126;2023-11-19T08:37:56;99945.09;;;11.78;90.41
81397;BME280;70852;49.908;8.126;2023-11-19T08:40:22;99943.63;;;11.81;90.22
81397;BME280;70852;49.908;8.126;2023-11-19T08:42:50;99942.00;;;11.80;90.40
81397;BME280;70852;49.908;8.126;2023-11-19T08:45:15;99951.44;;;11.79;89.71
81397;BME280;70852;49.908;8.126;2023-11-19T08:47:43;99956.16;;;11.78;90.36
81397;BME280;70852;49.908;8.126;2023-11-19T08:50:13;99961.03;;;11.81;89.89
81397;BME280;70852;49.908;8.126;2023-11-19T08:52:38;99967.72;;;11.80;90.50
81397;BME280;70852;49.908;8.126;2023-11-19T08:55:09;99968.47;;;11.89;89.51
81397;BME280;70852;49.908;8.126;2023-11-19T08:57:35;99975.63;;;12.11;88.19
81397;BME280;70852;49.908;8.126;2023-11-19T09:00:01;99964.38;;;12.37;87.63
81397;BME280;70852;49.908;8.126;2023-11-19T09:02:29;99963.63;;;13.87;81.09
81397;BME280;70852;49.908;8.126;2023-11-19T09:04:54;99971.50;;;13.49;80.19
81397;BME280;70852;49.908;8.126;2023-11-19T09:07:20;99959.72;;;12.95;82.23
81397;BME280;70852;49.908;8.126;2023-11-19T09:09:46;99961.63;;;12.82;83.59
81397;BME280;70852;49.908;8.126;2023-11-19T09:12:16;99949.19;;;14.22;79.30
81397;BME280;70852;49.908;8.126;2023-11-19T09:14:41;99956.88;;;14.81;73.09
81397;BME280;70852;49.908;8.126;2023-11-19T09:17:11;99957.41;;;13.66;77.91
81397;BME280;70852;49.908;8.126;2023-11-19T09:19:36;99952.03;;;14.38;74.79
81397;BME280;70852;49.908;8.126;2023-11-19T09:22:04;99961.66;;;13.27;76.63
81397;BME280;70852;49.908;8.126;2023-11-19T09:24:29;99966.75;;;14.94;73.00
81397;BME280;70852;49.908;8.126;2023-11-19T09:26:54;99967.59;;;17.01;66.58
81397;BME280;70852;49.908;8.126;2023-11-19T09:29:21;99974.13;;;18.03;62.75
81397;BME280;70852;49.908;8.126;2023-11-19T09:31:49;99969.53;;;18.18;61.54
81397;BME280;70852;49.908;8.126;2023-11-19T09:34:16;99980.50;;;17.09;63.50
81397;BME280;70852;49.908;8.126;2023-11-19T09:36:44;99981.81;;;16.19;66.71
81397;BME280;70852;49.908;8.126;2023-11-19T09:39:13;100000.25;;;17.00;64.44
81397;BME280;70852;49.908;8.126;2023-11-19T09:41:45;99988.91;;;16.70;65.07
81397;BME280;70852;49.908;8.126;2023-11-19T09:44:14;99998.00;;;15.03;71.29
81397;BME280;70852;49.908;8.126;2023-11-19T09:46:46;99997.16;;;13.95;74.98
81397;BME280;70852;49.908;8.126;2023-11-19T09:49:13;99993.81;;;13.77;75.74
81397;BME280;70852;49.908;8.126;2023-11-19T09:51:38;99991.38;;;16.21;67.98
81397;BME280;70852;49.908;8.126;2023-11-19T09:54:03;99990.03;;;16.31;67.29
81397;BME280;70852;49.908;8.126;2023-11-19T09:56:29;99988.28;;;15.72;69.38
81397;BME280;70852;49.908;8.126;2023-11-19T09:58:55;99983.91;;;16.41;65.93
81397;BME280;70852;49.908;8.126;2023-11-19T10:01:21;99990.19;;;16.03;67.02
81397;BME280;70852;49.908;8.126;2023-11-19T10:03:49;99990.88;;;14.62;72.83
81397;BME280;70852;49.908;8.126;2023-11-19T10:06:22;99993.66;;;14.62;71.60
81397;BME280;70852;49.908;8.126;2023-11-19T10:08:50;99978.88;;;13.93;74.38
81397;BME280;70852;49.908;8.126;2023-11-19T10:11:15;99982.91;;;13.23;76.63
81397;BME280;70852;49.908;8.126;2023-11-19T10:13:44;99970.13;;;12.98;78.07
81397;BME280;70852;49.908;8.126;2023-11-19T10:16:13;99968.28;;;13.02;78.46
81397;BME280;70852;49.908;8.126;2023-11-19T10:18:51;99967.94;;;13.03;77.84
81397;BME280;70852;49.908;8.126;2023-11-19T10:21:19;99961.94;;;13.01;77.57
81397;BME280;70852;49.908;8.126;2023-11-19T10:23:54;99966.97;;;13.69;74.08
81397;BME280;70852;49.908;8.126;2023-11-19T10:26:20;99954.84;;;13.49;75.75
81397;BME280;70852;49.908;8.126;2023-11-19T10:28:49;99965.06;;;14.09;73.20
81397;BME280;70852;49.908;8.126;2023-11-19T10:31:18;99956.63;;;15.17;69.77
81397;BME280;70852;49.908;8.126;2023-11-19T10:33:46;99958.28;;;16.93;65.01
81397;BME280;70852;49.908;8.126;2023-11-19T10:36:16;99958.69;;;17.37;61.53
81397;BME280;70852;49.908;8.126;2023-11-19T10:38:54;99960.66;;;16.72;64.02
81397;BME280;70852;49.908;8.126;2023-11-19T10:41:32;99954.44;;;17.01;63.88
81397;BME280;70852;49.908;8.126;2023-11-19T10:43:58;99966.53;;;15.46;67.83
81397;BME280;70852;49.908;8.126;2023-11-19T10:46:39;99961.25;;;14.54;70.85
81397;BME280;70852;49.908;8.126;2023-11-19T10:49:07;99957.78;;;14.17;73.55
81397;BME280;70852;49.908;8.126;2023-11-19T10:51:35;99950.97;;;14.14;74.71
81397;BME280;70852;49.908;8.126;2023-11-19T10:54:03;99954.66;;;14.18;75.66
81397;BME280;70852;49.908;8.126;2023-11-19T10:56:35;99952.63;;;14.31;74.96
81397;BME280;70852;49.908;8.126;2023-11-19T10:59:06;99951.31;;;14.01;76.68
81397;BME280;70852;49.908;8.126;2023-11-19T11:01:45;99948.13;;;13.86;77.55
81397;BME280;70852;49.908;8.126;2023-11-19T11:04:19;99949.75;;;13.75;77.44
81397;BME280;70852;49.908;8.126;2023-11-19T11:06:48;99947.06;;;13.91;77.47
81397;BME280;70852;49.908;8.126;2023-11-19T11:09:16;99936.59;;;14.12;75.89
81397;BME280;70852;49.908;8.126;2023-11-19T11:11:47;99931.03;;;14.80;73.34
81397;BME280;70852;49.908;8.126;2023-11-19T11:14:15;99934.31;;;15.14;71.06
81397;BME280;70852;49.908;8.126;2023-11-19T11:16:42;99924.34;;;15.44;70.74
81397;BME280;70852;49.908;8.126;2023-11-19T11:19:09;99929.72;;;15.68;67.63
81397;BME280;70852;49.908;8.126;2023-11-19T11:21:36;99927.47;;;15.43;68.62
81397;BME280;70852;49.908;8.126;2023-11-19T11:37:49;99934.59;;;14.25;67.37
81397;BME280;70852;49.908;8.126;2023-11-19T11:40:16;99930.19;;;13.84;66.32
81397;BME280;70852;49.908;8.126;2023-11-19T11:42:44;99931.97;;;13.64;67.03
81397;BME280;70852;49.908;8.126;2023-11-19T11:45:13;99934.41;;;14.18;65.64
81397;BME280;70852;49.908;8.126;2023-11-19T11:50:14;99926.13;;;14.46;63.43
81397;BME280;70852;49.908;8.126;2023-11-19T11:55:27;99928.88;;;14.74;61.40
81397;BME280;70852;49.908;8.126;2023-11-19T11:57:53;99922.63;;;14.49;61.87
81397;BME280;70852;49.908;8.126;2023-11-19T12:03:06;99924.19;;;15.21;58.58
81397;BME280;70852;49.908;8.126;2023-11-19T12:05:32;99910.44;;;15.60;58.61
81397;BME280;70852;49.908;8.126;2023-11-19T12:08:06;99909.38;;;16.38;56.18
81397;BME280;70852;49.908;8.126;2023-11-19T12:10:53;99899.28;;;16.91;55.29
81397;BME280;70852;49.908;8.126;2023-11-19T12:13:20;99903.66;;;16.50;54.33
81397;BME280;70852;49.908;8.126;2023-11-19T12:18:31;99903.78;;;16.99;54.02
81397;BME280;70852;49.908;8.126;2023-11-19T12:21:03;99895.25;;;17.11;54.86
81397;BME280;70852;49.908;8.126;2023-11-19T12:23:31;99889.03;;;17.71;53.11
81397;BME280;70852;49.908;8.126;2023-11-19T12:25:59;99894.22;;;17.99;50.68
81397;BME280;70852;49.908;8.126;2023-11-19T12:28:27;99882.09;;;18.17;49.67
81397;BME280;70852;49.908;8.126;2023-11-19T12:30:53;99878.63;;;18.27;49.88
81397;BME280;70852;49.908;8.126;2023-11-19T12:33:19;99881.25;;;17.83;50.35
81397;BME280;70852;49.908;8.126;2023-11-19T12:35:50;99879.41;;;16.54;52.96
81397;BME280;70852;49.908;8.126;2023-11-19T12:38:22;99871.66;;;15.86;53.60
81397;BME280;70852;49.908;8.126;2023-11-19T12:41:08;99865.25;;;15.51;56.52
81397;BME280;70852;49.908;8.126;2023-11-19T12:43:36;99858.97;;;15.54;57.75
81397;BME280;70852;49.908;8.126;2023-11-19T12:46:24;99860.53;;;16.05;55.83
81397;BME280;70852;49.908;8.126;2023-11-19T12:48:49;99867.47;;;16.34;54.20
81397;BME280;70852;49.908;8.126;2023-11-19T12:51:15;99864.38;;;17.01;53.67
81397;BME280;70852;49.908;8.126;2023-11-19T12:53:51;99852.06;;;17.54;52.68
81397;BME280;70852;49.908;8.126;2023-11-19T12:56:22;99864.72;;;16.76;53.65
81397;BME280;70852;49.908;8.126;2023-11-19T12:58:48;99849.16;;;16.53;52.57
81397;BME280;70852;49.908;8.126;2023-11-19T13:01:20;99858.72;;;16.74;52.85
81397;BME280;70852;49.908;8.126;2023-11-19T13:03:48;99848.34;;;16.94;52.47
81397;BME280;70852;49.908;8.126;2023-11-19T13:06:15;99850.97;;;16.87;51.90
81397;BME280;70852;49.908;8.126;2023-11-19T13:11:11;99848.56;;;16.86;52.64
81397;BME280;70852;49.908;8.126;2023-11-19T13:14:00;99848.56;;;16.43;51.90
81397;BME280;70852;49.908;8.126;2023-11-19T13:16:29;99850.56;;;16.24;52.80
81397;BME280;70852;49.908;8.126;2023-11-19T13:18:54;99838.56;;;16.20;53.86
81397;BME280;70852;49.908;8.126;2023-11-19T13:21:20;99851.09;;;16.10;53.97
81397;BME280;70852;49.908;8.126;2023-11-19T13:23:45;99834.75;;;16.08;53.12
81397;BME280;70852;49.908;8.126;2023-11-19T13:26:11;99851.81;;;16.07;52.99
81397;BME280;70852;49.908;8.126;2023-11-19T13:28:37;99849.97;;;16.15;52.03
81397;BME280;70852;49.908;8.126;2023-11-19T13:31:03;99852.75;;;16.34;52.47
81397;BME280;70852;49.908;8.126;2023-11-19T13:33:28;99846.88;;;16.39;52.26